createdAt,value
2023-01-03T00:04:49.804Z,84.11
2023-01-03T00:11:11.592Z,85.37
2023-01-03T00:17:31.585Z,85.79
2023-01-03T00:23:54.641Z,86.46
2023-01-03T00:30:14.596Z,86.43
2023-01-03T00:36:37.648Z,86.84
2023-01-03T00:42:57.582Z,86.91
2023-01-03T00:49:20.653Z,87.23
2023-01-03T00:55:40.601Z,86.7
2023-01-03T01:02:03.762Z,85.92
2023-01-03T01:08:23.592Z,83.38
2023-01-03T01:14:46.644Z,83.09
2023-01-03T01:21:06.678Z,82.6
2023-01-03T01:27:29.600Z,82.01
2023-01-03T01:33:49.649Z,81.19
2023-01-03T01:40:12.648Z,80.94
2023-01-03T01:46:32.694Z,81.14
2023-01-03T01:52:55.708Z,80.9
2023-01-03T01:59:15.608Z,82.88
2023-01-03T02:05:38.640Z,83.57
2023-01-03T02:11:58.612Z,83.29
2023-01-03T02:18:21.611Z,82.88
2023-01-03T02:24:41.599Z,81.77
2023-01-03T02:31:04.705Z,83.01
2023-01-03T02:37:24.573Z,81.22
2023-01-03T02:43:47.591Z,80.45
2023-01-03T02:50:07.622Z,81.17
2023-01-03T02:56:30.591Z,83.72
2023-01-03T03:02:50.661Z,85.26
2023-01-03T03:09:13.616Z,84.71
2023-01-03T03:15:33.565Z,84.61
2023-01-03T03:21:56.647Z,81.8
2023-01-03T03:28:16.684Z,82.23
2023-01-03T03:34:39.631Z,82.63
2023-01-03T03:40:59.643Z,83.4
2023-01-03T03:47:22.675Z,84.15
2023-01-03T03:53:42.606Z,85.03
2023-01-03T04:00:05.634Z,85.62
2023-01-03T04:06:25.636Z,86.58
2023-01-03T04:12:48.700Z,86.94
2023-01-03T04:29:49.590Z,86.9
2023-01-03T04:36:12.583Z,87.21
2023-01-03T04:42:32.631Z,87.45
2023-01-03T04:48:55.622Z,86.69
2023-01-03T04:55:15.613Z,86.89
2023-01-03T05:01:38.688Z,87.29
2023-01-03T05:07:58.726Z,87.73
2023-01-03T05:14:21.622Z,87.67
2023-01-03T05:20:41.599Z,88.01
2023-01-03T05:27:04.660Z,87.85
2023-01-03T05:33:24.573Z,87.75
2023-01-03T05:39:47.585Z,87.65
2023-01-03T05:46:07.730Z,88.14
2023-01-03T05:52:30.571Z,87.92
2023-01-03T05:58:51.569Z,87.83
2023-01-03T06:05:15.313Z,87.72
2023-01-03T06:11:35.616Z,86.74
2023-01-03T06:18:00.224Z,87.04
2023-01-03T06:24:20.668Z,86.54
2023-01-03T06:30:43.723Z,86.62
2023-01-03T06:37:04.278Z,87.17
2023-01-03T06:43:27.660Z,86.67
2023-01-03T06:49:47.677Z,86.95
2023-01-03T06:56:10.583Z,87.03
2023-01-03T07:02:30.794Z,87.59
2023-01-03T07:08:53.627Z,87.78
2023-01-03T07:15:13.623Z,87.78
2023-01-03T07:21:36.620Z,88.33
2023-01-03T07:28:01.958Z,88.32
2023-01-03T07:34:19.632Z,88.24
2023-01-03T07:40:39.647Z,87.67
2023-01-03T07:47:02.599Z,87.99
2023-01-03T07:53:22.613Z,87.56
2023-01-03T07:59:45.685Z,86.93
2023-01-03T08:06:05.585Z,86.59
2023-01-03T08:12:28.574Z,86.74
2023-01-03T08:18:48.652Z,86.4
2023-01-03T08:25:11.623Z,86.59
2023-01-03T08:31:31.605Z,86.98
2023-01-03T08:37:54.606Z,86.85
2023-01-03T08:44:14.578Z,87.4
2023-01-03T08:50:37.647Z,86.35
2023-01-03T08:56:57.636Z,85.58
2023-01-03T09:03:20.772Z,84.76
2023-01-03T09:09:40.599Z,85.31
2023-01-03T09:16:03.671Z,83.85
2023-01-03T09:22:23.570Z,82.46
2023-01-03T09:37:58.534Z,77.22
2023-01-03T09:44:18.571Z,76.12
2023-01-03T09:51:14.842Z,74.89
2023-01-03T09:57:01.659Z,73.98
2023-01-03T10:03:24.696Z,73.2
2023-01-03T10:09:44.646Z,72.63
2023-01-03T10:16:07.641Z,71.94
2023-01-03T10:22:27.576Z,71.61
2023-01-03T10:28:50.612Z,71.22
2023-01-03T10:35:10.620Z,70.4
2023-01-03T10:41:33.691Z,70.53
2023-01-03T10:47:53.641Z,69.34
2023-01-03T10:54:16.638Z,68.89
2023-01-03T11:00:36.640Z,68.27
2023-01-03T11:06:59.588Z,68.24
2023-01-03T11:13:19.669Z,68.21
2023-01-03T11:19:42.614Z,67.59
2023-01-03T11:26:02.634Z,67.41
2023-01-03T11:32:25.732Z,67.17
2023-01-03T11:38:45.651Z,66.77
2023-01-03T11:45:08.700Z,67.23
2023-01-03T11:51:28.644Z,66.95
2023-01-03T11:57:51.603Z,67.01
2023-01-03T12:04:11.739Z,67.79
2023-01-03T12:10:34.591Z,67.95
2023-01-03T12:16:54.640Z,66.27
2023-01-03T12:23:17.564Z,65.58
2023-01-03T12:29:37.637Z,63.23
2023-01-03T12:36:00.598Z,62.5
2023-01-03T12:42:20.601Z,61.63
2023-01-03T12:48:43.664Z,60.43
2023-01-03T12:55:03.587Z,60.37
2023-01-03T13:01:26.729Z,61.72
2023-01-03T13:07:46.646Z,60.78
2023-01-03T13:14:09.577Z,60.09
2023-01-03T13:20:29.670Z,60.68
2023-01-03T13:26:52.631Z,60.01
2023-01-03T13:33:12.614Z,59.79
2023-01-03T13:39:35.624Z,60.79
2023-01-03T13:45:55.608Z,62.19
2023-01-03T13:52:18.623Z,63.25
2023-01-03T13:58:38.599Z,63.68
2023-01-03T14:05:01.645Z,63.99
2023-01-03T14:11:21.622Z,63.44
2023-01-03T14:17:44.755Z,63.41
2023-01-03T14:24:04.676Z,63.63
2023-01-03T14:30:27.590Z,63.26
2023-01-03T14:36:47.633Z,63.31
2023-01-03T14:52:39.547Z,62.98
2023-01-03T14:58:59.573Z,61.19
2023-01-03T15:05:22.582Z,61.27
2023-01-03T15:11:42.605Z,61.34
2023-01-03T15:18:06.425Z,61.15
2023-01-03T15:24:25.634Z,62.38
2023-01-03T15:30:48.711Z,62.39
2023-01-03T15:37:08.602Z,63.03
2023-01-03T15:43:31.679Z,63.62
2023-01-03T15:49:51.673Z,64.43
2023-01-03T15:56:14.707Z,65.68
2023-01-03T16:02:34.933Z,66.17
2023-01-03T16:08:57.906Z,66.11
2023-01-03T16:15:17.581Z,66.41
2023-01-03T16:21:40.558Z,66.06
2023-01-03T16:28:00.719Z,65.77
2023-01-03T16:34:26.357Z,65.61
2023-01-03T16:40:43.597Z,67.18
2023-01-03T16:47:06.615Z,67.63
2023-01-03T16:53:26.591Z,68.25
2023-01-03T16:59:49.669Z,70
2023-01-03T17:06:09.594Z,70.79
2023-01-03T17:12:32.578Z,72.19
2023-01-03T17:18:52.619Z,72.56
2023-01-03T17:25:15.631Z,73.26
2023-01-03T17:31:35.677Z,72.96
2023-01-03T17:38:24.411Z,71.31
2023-01-03T17:44:18.603Z,70.43
2023-01-03T17:50:41.594Z,70.23
2023-01-03T17:57:01.551Z,70.23
2023-01-03T18:03:24.757Z,70.23
2023-01-03T18:09:44.641Z,70.45
2023-01-03T18:16:07.653Z,70.68
2023-01-03T18:22:27.607Z,71.37
2023-01-03T18:28:50.709Z,71.63
2023-01-03T18:35:10.631Z,72.06
2023-01-03T18:41:33.588Z,72.08
2023-01-03T18:47:53.626Z,72.04
2023-01-03T18:54:16.610Z,72.18
2023-01-03T19:00:36.630Z,72.39
2023-01-03T19:06:59.591Z,72.72
2023-01-03T19:13:19.593Z,72.66
2023-01-03T19:19:42.922Z,72.94
2023-01-03T19:26:02.600Z,73.21
2023-01-03T19:32:25.556Z,73.51
2023-01-03T19:38:45.605Z,73.94
2023-01-03T19:45:08.573Z,74.27
2023-01-03T20:08:50.553Z,76.86
2023-01-03T20:15:10.575Z,77.31
2023-01-03T20:21:33.611Z,77.54
2023-01-03T20:27:53.619Z,78.06
2023-01-03T20:34:16.590Z,78.32
2023-01-03T20:40:36.587Z,78.9
2023-01-03T20:46:59.672Z,79.65
2023-01-03T20:53:19.569Z,79.85
2023-01-03T20:59:42.586Z,79.74
2023-01-03T21:06:02.677Z,79.99
2023-01-03T21:12:25.571Z,80.48
2023-01-03T21:18:45.586Z,80.27
2023-01-03T21:25:08.656Z,80.24
2023-01-03T21:31:28.681Z,80.23
2023-01-03T21:37:51.642Z,80.44
2023-01-03T21:44:11.639Z,80.88
2023-01-03T21:50:34.617Z,81.16
2023-01-03T21:56:54.595Z,81.32
2023-01-03T22:03:17.680Z,81.56
2023-01-03T22:09:37.561Z,80.93
2023-01-03T22:16:00.725Z,79.97
2023-01-03T22:22:20.592Z,79.41
2023-01-03T22:28:43.606Z,78.54
2023-01-03T22:35:03.661Z,78.22
2023-01-03T22:41:26.626Z,78.08
2023-01-03T22:47:46.578Z,78.47
2023-01-03T22:54:09.635Z,78.84
2023-01-03T23:19:41.589Z,80.8
2023-01-03T23:26:01.579Z,80.54
2023-01-03T23:32:24.584Z,81.21
2023-01-03T23:38:44.662Z,81.65
2023-01-03T23:45:07.594Z,81.62
2023-01-03T23:51:27.638Z,81.2
2023-01-03T23:57:50.615Z,80.28
